createdAt,value
2023-08-21T00:02:16.820Z,18.90
2023-08-21T00:04:44.111Z,18.90
2023-08-21T00:07:12.606Z,18.90
2023-08-21T00:09:39.891Z,18.90
2023-08-21T00:12:07.348Z,18.90
2023-08-21T00:14:35.047Z,18.90
2023-08-21T00:17:04.220Z,18.90
2023-08-21T00:19:32.022Z,18.80
2023-08-21T00:21:59.157Z,18.80
2023-08-21T00:24:26.380Z,18.80
2023-08-21T00:26:53.586Z,18.70
2023-08-21T00:29:20.838Z,18.70
2023-08-21T00:31:48.186Z,18.60
2023-08-21T00:34:15.441Z,18.50
2023-08-21T00:36:42.665Z,18.50
2023-08-21T00:39:09.882Z,18.40
2023-08-21T00:41:37.027Z,18.30
2023-08-21T00:44:05.276Z,18.30
2023-08-21T00:46:33.073Z,18.20
2023-08-21T00:49:01.024Z,18.10
2023-08-21T00:51:28.271Z,18.00
2023-08-21T00:53:55.522Z,18.00
2023-08-21T00:56:22.805Z,18.00
2023-08-21T00:58:52.215Z,17.90
2023-08-21T01:01:24.078Z,17.90
2023-08-21T01:03:51.398Z,17.80
2023-08-21T01:06:19.882Z,17.80
2023-08-21T01:08:54.577Z,17.80
2023-08-21T01:11:24.890Z,17.70
2023-08-21T01:14:04.447Z,17.70
2023-08-21T01:16:32.958Z,17.70
2023-08-21T01:19:00.803Z,17.60
2023-08-21T01:21:28.250Z,17.60
2023-08-21T01:23:55.468Z,17.60
2023-08-21T01:26:22.625Z,17.50
2023-08-21T01:28:49.853Z,17.40
2023-08-21T01:31:20.226Z,17.40
2023-08-21T01:33:49.028Z,17.40
2023-08-21T01:36:16.298Z,17.30
2023-08-21T01:38:44.495Z,17.30
2023-08-21T01:41:12.856Z,17.20
2023-08-21T01:43:40.099Z,17.20
2023-08-21T01:46:07.668Z,17.20
2023-08-21T01:48:35.093Z,17.20
2023-08-21T01:51:03.766Z,17.10
2023-08-21T01:53:31.043Z,17.10
2023-08-21T01:55:58.247Z,17.10
2023-08-21T01:58:25.580Z,17.10
2023-08-21T02:00:52.965Z,17.00
2023-08-21T02:03:20.400Z,17.00
2023-08-21T02:05:47.789Z,17.00
2023-08-21T02:08:15.680Z,17.00
2023-08-21T02:10:52.214Z,17.00
2023-08-21T02:13:20.325Z,17.00
2023-08-21T02:15:48.197Z,17.00
2023-08-21T02:18:15.734Z,17.00
2023-08-21T02:20:42.949Z,17.00
2023-08-21T02:23:10.875Z,17.00
2023-08-21T02:25:38.125Z,17.00
2023-08-21T02:28:05.497Z,17.00
2023-08-21T02:30:33.188Z,17.00
2023-08-21T02:33:00.453Z,17.00
2023-08-21T02:35:27.719Z,17.00
2023-08-21T02:37:54.942Z,17.00
2023-08-21T02:40:22.146Z,17.00
2023-08-21T02:42:49.808Z,17.00
2023-08-21T02:45:17.302Z,17.00
2023-08-21T02:47:44.606Z,17.00
2023-08-21T02:50:12.769Z,17.00
2023-08-21T02:52:40.297Z,17.00
2023-08-21T02:55:08.908Z,17.00
2023-08-21T02:57:36.415Z,16.90
2023-08-21T03:00:04.090Z,17.00
2023-08-21T03:02:31.473Z,16.90
2023-08-21T03:04:58.800Z,16.80
2023-08-21T03:07:26.046Z,16.90
2023-08-21T03:09:55.035Z,16.90
2023-08-21T03:12:22.195Z,16.90
2023-08-21T03:14:49.442Z,16.90
2023-08-21T03:17:16.750Z,16.80
2023-08-21T03:19:44.028Z,16.80
2023-08-21T03:22:11.514Z,16.80
2023-08-21T03:24:38.913Z,16.70
2023-08-21T03:27:06.259Z,16.70
2023-08-21T03:29:33.588Z,16.70
2023-08-21T03:32:01.088Z,16.60
2023-08-21T03:34:28.469Z,16.60
2023-08-21T03:37:00.473Z,16.60
2023-08-21T03:39:31.170Z,16.50
2023-08-21T03:41:58.497Z,16.50
2023-08-21T03:44:25.789Z,16.50
2023-08-21T03:46:53.101Z,16.40
2023-08-21T03:49:20.898Z,16.40
2023-08-21T03:51:49.815Z,16.30
2023-08-21T03:54:17.022Z,16.30
2023-08-21T03:56:44.210Z,16.20
2023-08-21T03:59:11.398Z,16.20
2023-08-21T04:01:38.794Z,16.20
2023-08-21T04:04:06.074Z,16.10
2023-08-21T04:06:33.409Z,16.10
2023-08-21T04:09:00.928Z,16.10
2023-08-21T04:11:29.861Z,16.00
2023-08-21T04:13:57.200Z,16.00
2023-08-21T04:16:24.461Z,16.00
2023-08-21T04:18:51.702Z,16.00
2023-08-21T04:21:19.726Z,16.10
2023-08-21T04:23:47.503Z,16.10
2023-08-21T04:26:15.180Z,16.10
2023-08-21T04:28:43.018Z,16.10
2023-08-21T04:31:10.244Z,16.20
2023-08-21T04:33:38.285Z,16.20
2023-08-21T04:36:05.661Z,16.20
2023-08-21T04:38:32.975Z,16.20
2023-08-21T04:41:09.986Z,16.20
2023-08-21T04:43:40.979Z,16.20
2023-08-21T04:46:09.983Z,16.30
2023-08-21T04:48:40.034Z,16.30
2023-08-21T04:51:07.549Z,16.30
2023-08-21T04:53:34.970Z,16.30
2023-08-21T04:56:04.642Z,16.30
2023-08-21T04:58:34.074Z,16.40
2023-08-21T05:01:01.415Z,16.40
2023-08-21T05:03:29.437Z,16.40
2023-08-21T05:05:57.210Z,16.40
2023-08-21T05:08:25.664Z,16.50
2023-08-21T05:10:57.133Z,16.50
2023-08-21T05:13:25.436Z,16.50
2023-08-21T05:15:54.119Z,16.60
2023-08-21T05:18:22.098Z,16.60
2023-08-21T05:20:49.775Z,16.60
2023-08-21T05:23:17.537Z,16.60
2023-08-21T05:25:49.295Z,16.70
2023-08-21T05:28:16.915Z,16.70
2023-08-21T05:30:44.094Z,16.70
2023-08-21T05:33:11.939Z,16.80
2023-08-21T05:35:39.359Z,16.80
2023-08-21T05:38:07.220Z,16.80
2023-08-21T05:40:36.116Z,16.90
2023-08-21T05:43:03.570Z,16.90
2023-08-21T05:45:31.630Z,17.00
2023-08-21T05:47:59.105Z,17.10
2023-08-21T05:50:26.318Z,17.10
2023-08-21T05:52:55.976Z,17.20
2023-08-21T05:55:23.281Z,17.30
2023-08-21T05:57:51.429Z,17.30
2023-08-21T06:00:20.731Z,17.40
2023-08-21T06:02:47.943Z,17.50
2023-08-21T06:05:48.548Z,17.60
2023-08-21T06:08:15.900Z,17.60
2023-08-21T06:10:43.246Z,17.70
2023-08-21T06:13:10.527Z,17.80
2023-08-21T06:15:37.898Z,17.90
2023-08-21T06:18:05.725Z,18.00
2023-08-21T06:20:33.229Z,18.00
2023-08-21T06:23:00.694Z,18.10
2023-08-21T06:25:28.131Z,18.20
2023-08-21T06:27:59.442Z,18.30
2023-08-21T06:30:27.749Z,18.30
2023-08-21T06:32:55.439Z,18.40
2023-08-21T06:35:22.898Z,18.50
2023-08-21T06:37:53.004Z,18.60
2023-08-21T06:40:20.186Z,18.70
2023-08-21T06:42:48.123Z,18.70
2023-08-21T06:45:15.460Z,18.80
2023-08-21T06:47:42.883Z,18.90
2023-08-21T06:50:10.623Z,19.00
2023-08-21T06:52:38.065Z,19.00
2023-08-21T06:55:05.605Z,19.10
2023-08-21T06:57:32.859Z,19.20
2023-08-21T07:00:00.057Z,19.30
2023-08-21T07:02:27.495Z,19.40
2023-08-21T07:04:54.708Z,19.40
2023-08-21T07:07:22.047Z,19.50
2023-08-21T07:09:49.258Z,19.50
2023-08-21T07:12:16.489Z,19.60
2023-08-21T07:14:43.704Z,19.70
2023-08-21T07:17:10.980Z,19.80
2023-08-21T07:19:38.171Z,19.90
2023-08-21T07:22:05.409Z,20.00
2023-08-21T07:24:32.520Z,20.10
2023-08-21T07:26:59.810Z,20.10
2023-08-21T07:29:26.929Z,20.20
2023-08-21T07:31:54.099Z,20.30
2023-08-21T07:34:21.304Z,20.40
2023-08-21T07:36:48.592Z,20.50
2023-08-21T07:39:15.814Z,20.50
2023-08-21T07:41:42.950Z,20.60
2023-08-21T07:44:10.220Z,20.70
2023-08-21T07:46:37.362Z,20.80
2023-08-21T07:49:04.577Z,20.90
2023-08-21T07:51:31.798Z,21.00
2023-08-21T07:54:00.871Z,21.00
2023-08-21T07:56:28.389Z,21.10
2023-08-21T07:58:55.499Z,21.20
2023-08-21T08:01:22.622Z,21.30
2023-08-21T08:03:50.861Z,21.40
2023-08-21T08:06:19.683Z,21.40
2023-08-21T08:08:47.100Z,21.50
2023-08-21T08:11:16.320Z,21.60
2023-08-21T08:13:43.469Z,21.60
2023-08-21T08:16:10.716Z,21.70
2023-08-21T08:18:37.958Z,21.80
2023-08-21T08:21:05.920Z,21.90
2023-08-21T08:23:33.237Z,22.00
2023-08-21T08:26:00.341Z,22.10
2023-08-21T08:28:27.618Z,22.20
2023-08-21T08:30:55.221Z,22.20
2023-08-21T08:33:22.504Z,22.40
2023-08-21T08:35:50.230Z,22.40
2023-08-21T08:38:18.363Z,22.60
2023-08-21T08:40:47.788Z,22.70
2023-08-21T08:43:15.493Z,22.70
2023-08-21T08:45:44.956Z,22.90
2023-08-21T08:48:13.892Z,23.00
2023-08-21T08:50:41.887Z,23.10
2023-08-21T08:53:15.978Z,23.10
2023-08-21T08:55:44.860Z,23.30
2023-08-21T08:58:12.130Z,23.30
2023-08-21T09:00:39.519Z,23.50
2023-08-21T09:03:07.763Z,23.60
2023-08-21T09:05:35.587Z,23.60
2023-08-21T09:08:14.927Z,23.70
2023-08-21T09:10:42.686Z,23.80
2023-08-21T09:13:10.469Z,23.90
2023-08-21T09:15:42.124Z,24.00
2023-08-21T09:18:10.963Z,24.10
2023-08-21T09:20:38.631Z,24.20
2023-08-21T09:23:05.894Z,24.30
2023-08-21T09:25:38.316Z,24.40
2023-08-21T09:28:07.245Z,24.40
2023-08-21T09:30:47.930Z,24.50
2023-08-21T09:33:15.040Z,24.60
2023-08-21T09:35:43.432Z,24.70
2023-08-21T09:38:11.536Z,24.70
2023-08-21T09:40:42.380Z,24.80
2023-08-21T09:43:09.950Z,24.90
2023-08-21T09:45:37.147Z,24.90
2023-08-21T09:48:05.302Z,25.00
2023-08-21T09:50:32.998Z,25.10
2023-08-21T09:53:00.163Z,25.10
2023-08-21T09:55:31.087Z,25.20
2023-08-21T09:58:01.751Z,25.30
2023-08-21T10:00:30.591Z,25.30
2023-08-21T10:03:00.922Z,25.40
2023-08-21T10:05:28.502Z,25.50
2023-08-21T10:07:56.693Z,25.50
2023-08-21T10:10:24.118Z,25.60
2023-08-21T10:12:51.449Z,25.70
2023-08-21T10:15:18.751Z,25.70
2023-08-21T10:17:45.989Z,25.70
2023-08-21T10:20:13.291Z,25.80
2023-08-21T10:22:40.867Z,25.90
2023-08-21T10:25:31.594Z,25.90
2023-08-21T10:28:01.268Z,26.00
2023-08-21T10:30:29.386Z,26.00
2023-08-21T10:32:57.640Z,26.10
2023-08-21T10:35:35.996Z,26.20
2023-08-21T10:38:19.298Z,26.20
2023-08-21T10:41:09.555Z,26.30
2023-08-21T10:43:42.687Z,26.30
2023-08-21T10:46:10.134Z,26.30
2023-08-21T10:48:38.126Z,26.40
2023-08-21T10:51:06.313Z,26.50
2023-08-21T10:53:34.414Z,26.50
2023-08-21T10:56:05.430Z,26.60
2023-08-21T10:58:52.628Z,26.70
2023-08-21T11:01:19.762Z,26.70
2023-08-21T11:03:47.942Z,26.70
2023-08-21T11:06:15.269Z,26.80
2023-08-21T11:08:42.517Z,27.00
2023-08-21T11:11:11.568Z,26.90
2023-08-21T11:13:38.906Z,27.00
2023-08-21T11:16:06.502Z,27.00
2023-08-21T11:18:34.650Z,27.10
2023-08-21T11:21:06.260Z,27.10
2023-08-21T11:23:34.213Z,27.20
2023-08-21T11:26:10.882Z,27.30
2023-08-21T11:28:47.669Z,27.40
2023-08-21T11:31:14.866Z,27.40
2023-08-21T11:33:42.004Z,27.50
2023-08-21T11:36:09.805Z,27.60
2023-08-21T11:38:37.002Z,27.70
2023-08-21T11:41:06.968Z,27.80
2023-08-21T11:43:41.660Z,27.80
2023-08-21T11:46:09.521Z,27.90
2023-08-21T11:48:38.573Z,27.90
2023-08-21T11:51:05.818Z,27.90
2023-08-21T11:53:40.000Z,27.90
2023-08-21T11:56:11.433Z,27.80
2023-08-21T11:58:39.587Z,27.80
2023-08-21T12:01:08.618Z,27.80
2023-08-21T12:03:40.669Z,27.80
2023-08-21T12:06:11.984Z,27.80
2023-08-21T12:08:40.060Z,27.80
2023-08-21T12:11:09.079Z,27.80
2023-08-21T12:13:36.534Z,27.90
2023-08-21T12:16:04.414Z,27.90
2023-08-21T12:18:31.904Z,27.90
2023-08-21T12:20:59.129Z,27.90
2023-08-21T12:23:26.419Z,27.90
2023-08-21T12:25:53.943Z,27.80
2023-08-21T12:28:21.279Z,27.80
2023-08-21T12:30:49.287Z,27.80
2023-08-21T12:33:24.272Z,27.80
2023-08-21T12:35:52.248Z,27.80
2023-08-21T12:38:19.633Z,27.70
2023-08-21T12:40:46.824Z,27.70
2023-08-21T12:43:13.978Z,27.70
2023-08-21T12:45:41.665Z,27.70
2023-08-21T12:48:09.771Z,27.60
2023-08-21T12:50:37.132Z,27.60
2023-08-21T12:53:04.469Z,27.50
2023-08-21T12:55:31.824Z,27.50
2023-08-21T12:57:59.069Z,27.30
2023-08-21T13:00:26.285Z,27.30
2023-08-21T13:02:53.510Z,27.20
2023-08-21T13:05:20.885Z,27.10
2023-08-21T13:07:48.136Z,27.00
2023-08-21T13:10:15.399Z,26.90
2023-08-21T13:12:43.007Z,26.80
2023-08-21T13:15:10.640Z,26.80
2023-08-21T13:17:37.979Z,26.70
2023-08-21T13:20:05.584Z,26.70
2023-08-21T13:22:50.290Z,26.60
2023-08-21T13:25:17.833Z,26.60
2023-08-21T13:27:45.294Z,26.50
2023-08-21T13:30:13.004Z,26.50
2023-08-21T13:32:40.188Z,26.50
2023-08-21T13:35:10.390Z,26.60
2023-08-21T13:37:38.119Z,26.60
2023-08-21T13:40:13.774Z,26.70
2023-08-21T13:42:42.193Z,26.70
2023-08-21T13:45:11.366Z,26.80
2023-08-21T13:47:39.226Z,26.90
2023-08-21T13:50:07.295Z,27.00
2023-08-21T13:52:35.221Z,27.00
2023-08-21T13:55:03.987Z,27.10
2023-08-21T13:57:31.227Z,27.10
2023-08-21T13:59:58.416Z,27.20
2023-08-21T14:02:25.620Z,27.20
2023-08-21T14:04:52.847Z,27.20
2023-08-21T14:07:20.148Z,27.20
2023-08-21T14:09:47.509Z,27.30
2023-08-21T14:12:14.672Z,27.30
2023-08-21T14:14:41.824Z,27.40
2023-08-21T14:17:09.565Z,27.40
2023-08-21T14:19:36.734Z,27.40
2023-08-21T14:22:04.422Z,27.40
2023-08-21T14:24:32.085Z,27.30
2023-08-21T14:26:59.283Z,27.30
2023-08-21T14:29:26.762Z,27.30
2023-08-21T14:31:56.882Z,27.20
2023-08-21T14:34:24.113Z,27.30
2023-08-21T14:36:51.352Z,27.30
2023-08-21T14:39:18.625Z,27.40
2023-08-21T14:41:48.885Z,27.40
2023-08-21T14:44:16.920Z,27.50
2023-08-21T14:46:44.251Z,27.50
2023-08-21T14:49:11.509Z,27.60
2023-08-21T14:51:38.671Z,27.60
2023-08-21T14:54:05.957Z,27.70
2023-08-21T14:56:34.469Z,27.80
2023-08-21T14:59:01.699Z,27.80
2023-08-21T15:01:28.923Z,27.90
2023-08-21T15:03:56.157Z,28.00
2023-08-21T15:06:23.424Z,28.10
2023-08-21T15:08:50.700Z,28.10
2023-08-21T15:11:18.005Z,28.20
2023-08-21T15:13:45.231Z,28.30
2023-08-21T15:16:12.474Z,28.30
2023-08-21T15:18:39.818Z,28.30
2023-08-21T15:21:07.035Z,28.30
2023-08-21T15:23:34.271Z,28.30
2023-08-21T15:26:01.474Z,28.30
2023-08-21T15:28:28.798Z,28.30
2023-08-21T15:30:56.055Z,28.30
2023-08-21T15:33:23.456Z,28.30
2023-08-21T15:35:51.122Z,28.30
2023-08-21T15:38:18.460Z,28.30
2023-08-21T15:40:45.584Z,28.30
2023-08-21T15:43:13.313Z,28.20
2023-08-21T15:45:40.593Z,28.20
2023-08-21T15:48:08.000Z,28.20
2023-08-21T15:50:35.182Z,28.10
2023-08-21T15:53:02.329Z,28.10
2023-08-21T15:55:29.487Z,27.90
2023-08-21T15:57:57.280Z,27.90
2023-08-21T16:00:24.517Z,27.80
2023-08-21T16:02:51.836Z,27.80
2023-08-21T16:05:20.428Z,27.70
2023-08-21T16:07:47.688Z,27.70
2023-08-21T16:10:14.958Z,27.60
2023-08-21T16:12:42.344Z,27.60
2023-08-21T16:15:09.846Z,27.50
2023-08-21T16:17:38.520Z,27.50
2023-08-21T16:20:06.459Z,27.50
2023-08-21T16:22:33.742Z,27.40
2023-08-21T16:25:01.801Z,27.40
2023-08-21T16:27:29.823Z,27.40
2023-08-21T16:29:57.001Z,27.30
2023-08-21T16:32:24.157Z,27.30
2023-08-21T16:34:51.319Z,27.20
2023-08-21T16:37:18.738Z,27.20
2023-08-21T16:39:46.528Z,27.10
2023-08-21T16:42:13.776Z,27.10
2023-08-21T16:44:40.968Z,27.10
2023-08-21T16:47:08.946Z,27.00
2023-08-21T16:49:36.201Z,27.00
2023-08-21T16:52:04.322Z,26.90
2023-08-21T16:54:31.423Z,26.90
2023-08-21T16:56:58.643Z,26.80
2023-08-21T16:59:25.918Z,26.80
2023-08-21T17:01:53.039Z,26.70
2023-08-21T17:04:20.242Z,26.60
2023-08-21T17:06:47.449Z,26.60
2023-08-21T17:09:14.708Z,26.50
2023-08-21T17:11:41.912Z,26.50
2023-08-21T17:14:09.092Z,26.40
2023-08-21T17:16:36.282Z,26.40
2023-08-21T17:19:04.005Z,26.30
2023-08-21T17:21:31.226Z,26.30
2023-08-21T17:23:58.401Z,26.30
2023-08-21T17:26:25.569Z,26.20
2023-08-21T17:28:52.718Z,26.20
2023-08-21T17:31:19.988Z,26.10
2023-08-21T17:33:47.246Z,26.10
2023-08-21T17:36:14.557Z,26.00
2023-08-21T17:38:41.849Z,26.00
2023-08-21T17:41:10.160Z,26.00
2023-08-21T17:43:37.357Z,25.90
2023-08-21T17:46:04.507Z,25.80
2023-08-21T17:48:31.773Z,25.70
2023-08-21T17:51:00.619Z,25.70
2023-08-21T17:53:27.808Z,25.60
2023-08-21T17:55:55.260Z,25.50
2023-08-21T17:58:22.574Z,25.50
2023-08-21T18:00:49.902Z,25.40
2023-08-21T18:03:17.354Z,25.30
2023-08-21T18:05:44.660Z,25.30
2023-08-21T18:08:14.837Z,25.20
2023-08-21T18:10:42.113Z,25.10
2023-08-21T18:13:09.304Z,25.00
2023-08-21T18:15:36.583Z,24.90
2023-08-21T18:18:05.314Z,24.80
2023-08-21T18:20:50.305Z,24.70
2023-08-21T18:23:18.098Z,24.60
2023-08-21T18:25:48.375Z,24.50
2023-08-21T18:28:16.302Z,24.40
2023-08-21T18:30:43.740Z,24.30
2023-08-21T18:33:11.211Z,24.30
2023-08-21T18:35:38.543Z,24.20
2023-08-21T18:38:07.463Z,24.20
2023-08-21T18:40:34.765Z,24.10
2023-08-21T18:43:01.984Z,24.00
2023-08-21T18:45:29.272Z,23.90
2023-08-21T18:47:57.029Z,23.80
2023-08-21T18:50:40.279Z,23.70
2023-08-21T18:53:08.107Z,23.60
2023-08-21T18:55:38.914Z,23.50
2023-08-21T18:58:06.200Z,23.50
2023-08-21T19:00:33.584Z,23.40
2023-08-21T19:03:02.354Z,23.30
2023-08-21T19:05:29.926Z,23.20
2023-08-21T19:07:59.270Z,23.10
2023-08-21T19:10:27.258Z,23.00
2023-08-21T19:12:55.261Z,23.00
2023-08-21T19:15:22.544Z,22.90
2023-08-21T19:17:49.820Z,22.90
2023-08-21T19:20:17.143Z,22.80
2023-08-21T19:22:44.423Z,22.70
2023-08-21T19:25:12.549Z,22.70
2023-08-21T19:27:41.128Z,22.60
2023-08-21T19:30:08.833Z,22.50
2023-08-21T19:32:37.932Z,22.50
2023-08-21T19:35:08.396Z,22.40
2023-08-21T19:37:36.300Z,22.40
2023-08-21T19:40:06.553Z,22.30
2023-08-21T19:42:33.982Z,22.30
2023-08-21T19:45:01.258Z,22.20
2023-08-21T19:47:28.565Z,22.20
2023-08-21T19:49:55.849Z,22.10
2023-08-21T19:52:23.042Z,22.10
2023-08-21T19:54:52.104Z,22.00
2023-08-21T19:57:19.356Z,22.00
2023-08-21T19:59:46.565Z,22.00
2023-08-21T20:02:13.775Z,21.90
2023-08-21T20:04:41.044Z,21.90
2023-08-21T20:07:12.043Z,21.80
2023-08-21T20:09:40.122Z,21.70
2023-08-21T20:12:07.597Z,21.70
2023-08-21T20:14:34.872Z,21.60
2023-08-21T20:17:02.134Z,21.50
2023-08-21T20:19:30.264Z,21.50
2023-08-21T20:21:57.511Z,21.40
2023-08-21T20:24:25.857Z,21.40
2023-08-21T20:26:53.819Z,21.30
2023-08-21T20:29:21.357Z,21.30
2023-08-21T20:31:48.584Z,21.30
2023-08-21T20:34:16.580Z,21.20
2023-08-21T20:36:43.956Z,21.20
2023-08-21T20:39:11.727Z,21.10
2023-08-21T20:41:39.417Z,21.10
2023-08-21T20:44:06.934Z,21.10
2023-08-21T20:46:34.143Z,21.10
2023-08-21T20:49:01.392Z,21.00
2023-08-21T20:51:29.672Z,21.00
2023-08-21T20:53:57.081Z,21.00
2023-08-21T20:56:24.244Z,20.90
2023-08-21T20:58:51.654Z,20.90
2023-08-21T21:01:18.996Z,20.90
2023-08-21T21:03:46.241Z,20.90
2023-08-21T21:06:13.420Z,20.80
2023-08-21T21:08:40.786Z,20.80
2023-08-21T21:11:07.944Z,20.80
2023-08-21T21:13:35.249Z,20.80
2023-08-21T21:16:02.507Z,20.80
2023-08-21T21:18:29.817Z,20.80
2023-08-21T21:20:58.139Z,20.80
2023-08-21T21:23:25.336Z,20.70
2023-08-21T21:25:52.570Z,20.70
2023-08-21T21:28:19.845Z,20.70
2023-08-21T21:30:47.081Z,20.70
2023-08-21T21:33:14.385Z,20.70
2023-08-21T21:35:41.576Z,20.70
2023-08-21T21:38:08.797Z,20.70
2023-08-21T21:40:35.962Z,20.70
2023-08-21T21:43:03.218Z,20.60
2023-08-21T21:45:32.230Z,20.60
2023-08-21T21:47:59.550Z,20.60
2023-08-21T21:50:27.095Z,20.50
2023-08-21T21:52:54.468Z,20.40
2023-08-21T21:55:23.970Z,20.40
2023-08-21T21:57:51.523Z,20.40
2023-08-21T22:00:18.794Z,20.30
2023-08-21T22:02:46.173Z,20.20
2023-08-21T22:05:13.456Z,20.20
2023-08-21T22:07:40.961Z,20.20
2023-08-21T22:10:08.749Z,20.10
2023-08-21T22:12:36.236Z,20.10
2023-08-21T22:15:03.958Z,20.10
2023-08-21T22:17:31.178Z,20.10
2023-08-21T22:19:58.405Z,20.10
2023-08-21T22:22:25.580Z,20.10
2023-08-21T22:24:52.879Z,20.00
2023-08-21T22:27:20.111Z,20.00
2023-08-21T22:29:47.339Z,20.00
2023-08-21T22:32:14.664Z,20.00
2023-08-21T22:34:41.967Z,20.00
2023-08-21T22:37:09.342Z,19.90
2023-08-21T22:39:36.540Z,19.90
2023-08-21T22:42:03.813Z,19.90
2023-08-21T22:44:31.179Z,19.90
2023-08-21T22:46:58.523Z,19.80
2023-08-21T22:49:25.687Z,19.80
2023-08-21T22:51:53.389Z,19.80
2023-08-21T22:54:20.659Z,19.80
2023-08-21T22:56:47.904Z,19.80
2023-08-21T22:59:15.432Z,19.80
2023-08-21T23:01:42.689Z,19.80
2023-08-21T23:04:10.007Z,19.80
2023-08-21T23:06:37.176Z,19.80
2023-08-21T23:09:06.262Z,19.80
2023-08-21T23:11:33.542Z,19.80
2023-08-21T23:14:00.763Z,19.80
2023-08-21T23:16:28.055Z,19.80
2023-08-21T23:18:55.505Z,19.80
2023-08-21T23:21:23.326Z,19.80
2023-08-21T23:23:50.952Z,19.70
2023-08-21T23:26:18.278Z,19.70
2023-08-21T23:28:45.576Z,19.70
2023-08-21T23:31:13.012Z,19.70
2023-08-21T23:33:40.234Z,19.60
2023-08-21T23:36:07.622Z,19.60
2023-08-21T23:38:34.991Z,19.60
2023-08-21T23:41:02.237Z,19.60
2023-08-21T23:43:29.448Z,19.60
2023-08-21T23:45:56.574Z,19.60
2023-08-21T23:48:23.881Z,19.60
2023-08-21T23:50:51.115Z,19.60
2023-08-21T23:53:18.332Z,19.60
2023-08-21T23:55:45.493Z,19.60
2023-08-21T23:58:12.744Z,19.50
